Aeroporto :
LOGIN :

Iscrizione | Disclaimer

   EN    FR    IT 

 










Sommario :    VFR   VFR Marginale   IFR   IFR Intensivo   IFR Molto Intensivo
Visibilità : 
Base nubi : 
>= 8 km
>= 3000ft
5 / 8 km
1000 / 3000 ft
1500m / 5 km
500 / 1000 ft
800 / 1500m
200 / 500 ft
< 800m
< 200 ft
Simboli :   Temporali  Nebbia  Neve Forte  Precipitazioni Forti  Vento > 20 kt
SIGMETs :   Varie  Temporali  Ghiacco  Turbolenza  Onda orograficha  Ceneri Vulcaniche






- Altitudine del aeroporto : 38 ft
- Codice IATA : TRE


EGPU - Tiree

ULTIMO METAR :
  • 280020Z AUTO 19014KT 9999 FEW039/// 12/10 Q1033

METARs OBSOLETI :
  • 272350Z AUTO 18012KT 9999 OVC041/// 12/10 Q1033
  • 272320Z AUTO 19012KT 9999 BKN045/// 12/10 Q1034
  • 272250Z AUTO 18010KT 9999 OVC045/// 12/10 Q1034
  • 272220Z AUTO 18011KT 9999 NCD 12/10 Q1034
  • 272150Z AUTO 18011KT 9999 FEW034/// BKN048/// 12/10 Q1034

TAF TAF EGPU
Valido dal 27 a 21 ore il 28 a 06 ore UTC


272004Z 2721/2806 16009KT 9999 FEW010 SCT020
TEMPO 2721/2806 17015G25KT 6000
PROB30
TEMPO 2721/2806 4000 RADZ BR BKN009



MetMap, La meteo Aeronautica in un colpo d'occhio ! - Copyright ORBIFLY Dicembre 2007 - Disclaimer

ORBIFLY MET'MAP TEAM :

Programmazione e sviluppo : Alexandra Zaïnal
Concezione : Baudouin d'Aumeries
Aiuto per la programmazione : Marc-Olivier Méhu
Supporto tecnico e logistico : Manuel Goepfert
Aiuto per la traduzione : Arnaldo La Scala

Contatto : metmap@orbifly.com




FONTI E CREDITI :

   NOAA